sensor_id;sensor_type;location;lat;lon;timestamp;temperature;humidity
16881;DHT22;8557;52.068;5.198;2022-10-15T00:00:32;11.70;99.90
16881;DHT22;8557;52.068;5.198;2022-10-15T00:02:59;11.80;99.90
16881;DHT22;8557;52.068;5.198;2022-10-15T00:05:26;11.80;99.90
16881;DHT22;8557;52.068;5.198;2022-10-15T00:07:53;11.90;99.90
16881;DHT22;8557;52.068;5.198;2022-10-15T00:10:20;11.90;99.90
16881;DHT22;8557;52.068;5.198;2022-10-15T00:12:46;11.90;99.90
16881;DHT22;8557;52.068;5.198;2022-10-15T00:15:14;11.90;99.90
16881;DHT22;8557;52.068;5.198;2022-10-15T00:17:42;11.90;99.90
16881;DHT22;8557;52.068;5.198;2022-10-15T00:20:10;11.90;99.90
16881;DHT22;8557;52.068;5.198;2022-10-15T00:22:37;11.90;99.90
16881;DHT22;8557;52.068;5.198;2022-10-15T00:25:05;11.90;99.90
16881;DHT22;8557;52.068;5.198;2022-10-15T00:27:32;11.90;99.90
16881;DHT22;8557;52.068;5.198;2022-10-15T00:29:59;11.80;99.90
16881;DHT22;8557;52.068;5.198;2022-10-15T00:32:27;11.90;99.90
16881;DHT22;8557;52.068;5.198;2022-10-15T00:34:56;11.90;99.90
16881;DHT22;8557;52.068;5.198;2022-10-15T00:37:23;12.00;99.90
16881;DHT22;8557;52.068;5.198;2022-10-15T00:39:50;12.00;99.90
16881;DHT22;8557;52.068;5.198;2022-10-15T00:42:16;12.00;99.90
16881;DHT22;8557;52.068;5.198;2022-10-15T00:44:49;12.00;99.90
16881;DHT22;8557;52.068;5.198;2022-10-15T00:47:19;12.00;99.90
16881;DHT22;8557;52.068;5.198;2022-10-15T00:49:52;11.90;99.90
16881;DHT22;8557;52.068;5.198;2022-10-15T00:52:26;12.00;99.90
16881;DHT22;8557;52.068;5.198;2022-10-15T00:55:01;11.90;99.90
16881;DHT22;8557;52.068;5.198;2022-10-15T00:57:30;11.90;99.90
16881;DHT22;8557;52.068;5.198;2022-10-15T01:00:01;11.90;99.90
16881;DHT22;8557;52.068;5.198;2022-10-15T01:02:28;11.80;99.90
16881;DHT22;8557;52.068;5.198;2022-10-15T01:04:55;11.80;99.90
16881;DHT22;8557;52.068;5.198;2022-10-15T01:07:23;11.80;99.90
16881;DHT22;8557;52.068;5.198;2022-10-15T01:09:50;11.80;99.90
16881;DHT22;8557;52.068;5.198;2022-10-15T01:12:25;11.90;99.90
16881;DHT22;8557;52.068;5.198;2022-10-15T01:14:58;11.90;99.90
16881;DHT22;8557;52.068;5.198;2022-10-15T01:17:33;11.80;99.90
16881;DHT22;8557;52.068;5.198;2022-10-15T01:26:32;11.70;99.90
16881;DHT22;8557;52.068;5.198;2022-10-15T01:29:13;11.60;99.90
16881;DHT22;8557;52.068;5.198;2022-10-15T01:31:51;11.60;99.90
16881;DHT22;8557;52.068;5.198;2022-10-15T01:34:23;11.60;99.90
16881;DHT22;8557;52.068;5.198;2022-10-15T01:36:57;11.60;99.90
16881;DHT22;8557;52.068;5.198;2022-10-15T01:39:31;11.60;99.90
16881;DHT22;8557;52.068;5.198;2022-10-15T01:42:00;11.50;99.90
16881;DHT22;8557;52.068;5.198;2022-10-15T01:44:32;11.50;99.90
16881;DHT22;8557;52.068;5.198;2022-10-15T01:47:03;11.50;99.90
16881;DHT22;8557;52.068;5.198;2022-10-15T01:49:33;11.50;99.90
16881;DHT22;8557;52.068;5.198;2022-10-15T01:52:03;11.50;99.90
16881;DHT22;8557;52.068;5.198;2022-10-15T01:54:30;11.40;99.90
16881;DHT22;8557;52.068;5.198;2022-10-15T01:56:58;11.50;99.90
16881;DHT22;8557;52.068;5.198;2022-10-15T01:59:29;11.50;99.90
16881;DHT22;8557;52.068;5.198;2022-10-15T02:01:57;11.60;99.90
16881;DHT22;8557;52.068;5.198;2022-10-15T02:04:27;11.60;99.90
16881;DHT22;8557;52.068;5.198;2022-10-15T02:06:59;11.70;99.90
16881;DHT22;8557;52.068;5.198;2022-10-15T02:09:34;11.70;99.90
16881;DHT22;8557;52.068;5.198;2022-10-15T02:12:11;11.70;99.90
16881;DHT22;8557;52.068;5.198;2022-10-15T02:14:49;11.80;99.90
16881;DHT22;8557;52.068;5.198;2022-10-15T02:17:23;11.80;99.90
16881;DHT22;8557;52.068;5.198;2022-10-15T02:19:58;11.80;99.90
16881;DHT22;8557;52.068;5.198;2022-10-15T02:22:33;11.90;99.90
16881;DHT22;8557;52.068;5.198;2022-10-15T02:25:04;11.90;99.90
16881;DHT22;8557;52.068;5.198;2022-10-15T02:27:33;11.90;99.90
16881;DHT22;8557;52.068;5.198;2022-10-15T02:30:02;11.90;99.90
16881;DHT22;8557;52.068;5.198;2022-10-15T02:32:32;11.90;99.90
16881;DHT22;8557;52.068;5.198;2022-10-15T02:35:01;11.90;99.90
16881;DHT22;8557;52.068;5.198;2022-10-15T02:37:29;11.90;99.90
16881;DHT22;8557;52.068;5.198;2022-10-15T02:39:56;11.80;99.90
16881;DHT22;8557;52.068;5.198;2022-10-15T02:42:24;11.80;99.90
16881;DHT22;8557;52.068;5.198;2022-10-15T02:44:50;11.80;99.90
16881;DHT22;8557;52.068;5.198;2022-10-15T02:47:17;11.70;99.90
16881;DHT22;8557;52.068;5.198;2022-10-15T02:49:44;11.70;99.90
16881;DHT22;8557;52.068;5.198;2022-10-15T02:52:12;11.70;99.90
16881;DHT22;8557;52.068;5.198;2022-10-15T02:54:39;11.60;99.90
16881;DHT22;8557;52.068;5.198;2022-10-15T02:57:05;11.60;99.90
16881;DHT22;8557;52.068;5.198;2022-10-15T02:59:32;11.50;99.90
16881;DHT22;8557;52.068;5.198;2022-10-15T03:01:59;11.50;99.90
16881;DHT22;8557;52.068;5.198;2022-10-15T03:04:25;11.40;99.90
16881;DHT22;8557;52.068;5.198;2022-10-15T03:06:53;11.40;99.90
16881;DHT22;8557;52.068;5.198;2022-10-15T03:09:21;11.40;99.90
16881;DHT22;8557;52.068;5.198;2022-10-15T03:11:48;11.40;99.90
16881;DHT22;8557;52.068;5.198;2022-10-15T03:14:14;11.40;99.90
16881;DHT22;8557;52.068;5.198;2022-10-15T03:16:41;11.40;99.90
16881;DHT22;8557;52.068;5.198;2022-10-15T03:19:08;11.40;99.90
16881;DHT22;8557;52.068;5.198;2022-10-15T03:21:35;11.40;99.90
16881;DHT22;8557;52.068;5.198;2022-10-15T03:24:01;11.40;99.90
16881;DHT22;8557;52.068;5.198;2022-10-15T03:26:29;11.30;99.90
16881;DHT22;8557;52.068;5.198;2022-10-15T03:28:56;11.20;99.90
16881;DHT22;8557;52.068;5.198;2022-10-15T03:31:23;11.20;99.90
16881;DHT22;8557;52.068;5.198;2022-10-15T03:33:50;11.20;99.90
16881;DHT22;8557;52.068;5.198;2022-10-15T03:36:16;11.20;99.90
16881;DHT22;8557;52.068;5.198;2022-10-15T03:38:43;11.20;99.90
16881;DHT22;8557;52.068;5.198;2022-10-15T03:41:10;11.10;99.90
16881;DHT22;8557;52.068;5.198;2022-10-15T03:43:38;11.10;99.90
16881;DHT22;8557;52.068;5.198;2022-10-15T03:46:05;11.20;99.90
16881;DHT22;8557;52.068;5.198;2022-10-15T03:48:31;11.10;99.90
16881;DHT22;8557;52.068;5.198;2022-10-15T03:50:58;11.10;99.90
16881;DHT22;8557;52.068;5.198;2022-10-15T03:53:25;11.10;99.90
16881;DHT22;8557;52.068;5.198;2022-10-15T03:55:52;11.10;99.90
16881;DHT22;8557;52.068;5.198;2022-10-15T03:58:18;11.10;99.90
16881;DHT22;8557;52.068;5.198;2022-10-15T04:00:46;11.10;99.90
16881;DHT22;8557;52.068;5.198;2022-10-15T04:03:13;11.10;99.90
16881;DHT22;8557;52.068;5.198;2022-10-15T04:05:40;11.10;99.90
16881;DHT22;8557;52.068;5.198;2022-10-15T04:08:07;11.10;99.90
16881;DHT22;8557;52.068;5.198;2022-10-15T04:10:34;11.10;99.90
16881;DHT22;8557;52.068;5.198;2022-10-15T04:13:00;11.10;99.90
16881;DHT22;8557;52.068;5.198;2022-10-15T04:15:27;11.00;99.90
16881;DHT22;8557;52.068;5.198;2022-10-15T04:17:55;11.00;99.90
16881;DHT22;8557;52.068;5.198;2022-10-15T04:20:22;11.10;99.90
16881;DHT22;8557;52.068;5.198;2022-10-15T04:22:49;11.10;99.90
16881;DHT22;8557;52.068;5.198;2022-10-15T04:25:16;11.10;99.90
16881;DHT22;8557;52.068;5.198;2022-10-15T04:27:42;11.20;99.90
16881;DHT22;8557;52.068;5.198;2022-10-15T04:30:11;11.20;99.90
16881;DHT22;8557;52.068;5.198;2022-10-15T04:32:37;11.30;99.90
16881;DHT22;8557;52.068;5.198;2022-10-15T04:35:06;11.30;99.90
16881;DHT22;8557;52.068;5.198;2022-10-15T04:37:33;11.40;99.90
16881;DHT22;8557;52.068;5.198;2022-10-15T04:40:00;11.40;99.90
16881;DHT22;8557;52.068;5.198;2022-10-15T04:42:28;11.50;99.90
16881;DHT22;8557;52.068;5.198;2022-10-15T04:44:55;11.50;99.90
16881;DHT22;8557;52.068;5.198;2022-10-15T04:47:21;11.60;99.90
16881;DHT22;8557;52.068;5.198;2022-10-15T04:49:48;11.70;99.90
16881;DHT22;8557;52.068;5.198;2022-10-15T04:52:16;11.70;99.90
16881;DHT22;8557;52.068;5.198;2022-10-15T04:54:43;11.70;99.90
16881;DHT22;8557;52.068;5.198;2022-10-15T04:57:10;11.70;99.90
16881;DHT22;8557;52.068;5.198;2022-10-15T04:59:37;11.70;99.90
16881;DHT22;8557;52.068;5.198;2022-10-15T05:02:03;11.60;99.90
16881;DHT22;8557;52.068;5.198;2022-10-15T05:04:30;11.60;99.90
16881;DHT22;8557;52.068;5.198;2022-10-15T05:06:57;11.60;99.90
16881;DHT22;8557;52.068;5.198;2022-10-15T05:09:25;11.60;99.90
16881;DHT22;8557;52.068;5.198;2022-10-15T05:11:52;11.50;99.90
16881;DHT22;8557;52.068;5.198;2022-10-15T05:14:20;11.60;99.90
16881;DHT22;8557;52.068;5.198;2022-10-15T05:16:47;11.60;99.90
16881;DHT22;8557;52.068;5.198;2022-10-15T05:19:14;11.60;99.90
16881;DHT22;8557;52.068;5.198;2022-10-15T05:21:42;11.70;99.90
16881;DHT22;8557;52.068;5.198;2022-10-15T05:24:09;11.80;99.90
16881;DHT22;8557;52.068;5.198;2022-10-15T05:26:37;11.90;99.90
16881;DHT22;8557;52.068;5.198;2022-10-15T05:29:04;11.90;99.90
16881;DHT22;8557;52.068;5.198;2022-10-15T05:31:32;11.90;99.90
16881;DHT22;8557;52.068;5.198;2022-10-15T05:34:04;11.90;99.90
16881;DHT22;8557;52.068;5.198;2022-10-15T05:36:31;12.00;99.90
16881;DHT22;8557;52.068;5.198;2022-10-15T05:39:00;12.10;99.90
16881;DHT22;8557;52.068;5.198;2022-10-15T05:41:28;12.10;99.90
16881;DHT22;8557;52.068;5.198;2022-10-15T05:43:57;12.10;99.90
16881;DHT22;8557;52.068;5.198;2022-10-15T05:46:24;12.20;99.90
16881;DHT22;8557;52.068;5.198;2022-10-15T05:48:53;12.20;99.90
16881;DHT22;8557;52.068;5.198;2022-10-15T05:51:21;12.30;99.90
16881;DHT22;8557;52.068;5.198;2022-10-15T05:53:50;12.40;99.90
16881;DHT22;8557;52.068;5.198;2022-10-15T05:56:17;12.50;99.90
16881;DHT22;8557;52.068;5.198;2022-10-15T05:58:44;12.50;99.90
16881;DHT22;8557;52.068;5.198;2022-10-15T06:01:12;12.50;99.90
16881;DHT22;8557;52.068;5.198;2022-10-15T06:03:40;12.60;99.90
16881;DHT22;8557;52.068;5.198;2022-10-15T06:06:15;12.70;99.90
16881;DHT22;8557;52.068;5.198;2022-10-15T06:08:42;12.70;99.90
16881;DHT22;8557;52.068;5.198;2022-10-15T06:11:09;12.80;99.90
16881;DHT22;8557;52.068;5.198;2022-10-15T06:13:37;12.80;99.90
16881;DHT22;8557;52.068;5.198;2022-10-15T06:16:05;12.80;99.90
16881;DHT22;8557;52.068;5.198;2022-10-15T06:18:33;12.80;99.90
16881;DHT22;8557;52.068;5.198;2022-10-15T06:21:00;12.80;99.90
16881;DHT22;8557;52.068;5.198;2022-10-15T06:23:27;12.80;99.90
16881;DHT22;8557;52.068;5.198;2022-10-15T06:25:54;12.90;99.90
16881;DHT22;8557;52.068;5.198;2022-10-15T06:28:21;12.90;99.90
16881;DHT22;8557;52.068;5.198;2022-10-15T06:30:47;12.90;99.90
16881;DHT22;8557;52.068;5.198;2022-10-15T06:33:14;12.90;99.90
16881;DHT22;8557;52.068;5.198;2022-10-15T06:35:43;13.00;99.90
16881;DHT22;8557;52.068;5.198;2022-10-15T06:38:10;13.00;99.90
16881;DHT22;8557;52.068;5.198;2022-10-15T06:40:37;13.00;99.90
16881;DHT22;8557;52.068;5.198;2022-10-15T06:43:05;13.10;99.90
16881;DHT22;8557;52.068;5.198;2022-10-15T06:45:33;13.10;99.90
16881;DHT22;8557;52.068;5.198;2022-10-15T06:48:01;13.20;99.90
16881;DHT22;8557;52.068;5.198;2022-10-15T06:50:29;13.20;99.90
16881;DHT22;8557;52.068;5.198;2022-10-15T06:52:57;13.20;99.90
16881;DHT22;8557;52.068;5.198;2022-10-15T06:55:24;13.20;99.90
16881;DHT22;8557;52.068;5.198;2022-10-15T06:57:53;13.20;99.90
16881;DHT22;8557;52.068;5.198;2022-10-15T07:00:20;13.20;99.90
16881;DHT22;8557;52.068;5.198;2022-10-15T07:02:46;13.30;99.90
16881;DHT22;8557;52.068;5.198;2022-10-15T07:05:13;13.30;99.90
16881;DHT22;8557;52.068;5.198;2022-10-15T07:07:40;13.30;99.90
16881;DHT22;8557;52.068;5.198;2022-10-15T07:10:09;13.30;99.90
16881;DHT22;8557;52.068;5.198;2022-10-15T07:12:36;13.40;99.90
16881;DHT22;8557;52.068;5.198;2022-10-15T07:15:03;13.40;99.90
16881;DHT22;8557;52.068;5.198;2022-10-15T07:17:31;13.40;99.90
16881;DHT22;8557;52.068;5.198;2022-10-15T07:19:59;13.50;99.90
16881;DHT22;8557;52.068;5.198;2022-10-15T07:22:26;13.50;99.90
16881;DHT22;8557;52.068;5.198;2022-10-15T07:24:53;13.60;99.90
16881;DHT22;8557;52.068;5.198;2022-10-15T07:27:21;13.60;99.90
16881;DHT22;8557;52.068;5.198;2022-10-15T07:29:48;13.70;99.90
16881;DHT22;8557;52.068;5.198;2022-10-15T07:32:14;13.70;99.90
16881;DHT22;8557;52.068;5.198;2022-10-15T07:34:41;13.70;99.90
16881;DHT22;8557;52.068;5.198;2022-10-15T07:37:08;13.70;99.90
16881;DHT22;8557;52.068;5.198;2022-10-15T07:39:35;13.80;99.90
16881;DHT22;8557;52.068;5.198;2022-10-15T07:42:02;13.90;99.90
16881;DHT22;8557;52.068;5.198;2022-10-15T07:44:30;13.90;99.90
16881;DHT22;8557;52.068;5.198;2022-10-15T07:46:57;13.90;99.90
16881;DHT22;8557;52.068;5.198;2022-10-15T07:49:24;14.00;99.90
16881;DHT22;8557;52.068;5.198;2022-10-15T07:51:51;14.10;99.90
16881;DHT22;8557;52.068;5.198;2022-10-15T07:54:17;14.10;99.90
16881;DHT22;8557;52.068;5.198;2022-10-15T07:56:44;14.10;99.90
16881;DHT22;8557;52.068;5.198;2022-10-15T07:59:11;14.10;99.90
16881;DHT22;8557;52.068;5.198;2022-10-15T08:01:39;14.10;99.90
16881;DHT22;8557;52.068;5.198;2022-10-15T08:04:06;14.10;99.90
16881;DHT22;8557;52.068;5.198;2022-10-15T08:06:32;14.20;99.90
16881;DHT22;8557;52.068;5.198;2022-10-15T08:08:59;14.20;99.90
16881;DHT22;8557;52.068;5.198;2022-10-15T08:11:26;14.20;99.90
16881;DHT22;8557;52.068;5.198;2022-10-15T08:13:53;14.20;99.90
16881;DHT22;8557;52.068;5.198;2022-10-15T08:16:19;14.20;99.90
16881;DHT22;8557;52.068;5.198;2022-10-15T08:18:48;14.30;99.90
16881;DHT22;8557;52.068;5.198;2022-10-15T08:21:15;14.30;99.90
16881;DHT22;8557;52.068;5.198;2022-10-15T08:23:42;14.30;99.90
16881;DHT22;8557;52.068;5.198;2022-10-15T08:26:08;14.40;99.90
16881;DHT22;8557;52.068;5.198;2022-10-15T08:28:35;14.40;99.90
16881;DHT22;8557;52.068;5.198;2022-10-15T08:31:03;14.60;99.90
16881;DHT22;8557;52.068;5.198;2022-10-15T08:33:30;14.70;99.90
16881;DHT22;8557;52.068;5.198;2022-10-15T08:35:59;14.80;99.90
16881;DHT22;8557;52.068;5.198;2022-10-15T08:38:26;14.80;99.90
16881;DHT22;8557;52.068;5.198;2022-10-15T08:40:54;14.90;99.90
16881;DHT22;8557;52.068;5.198;2022-10-15T08:43:24;15.00;99.90
16881;DHT22;8557;52.068;5.198;2022-10-15T08:45:56;15.10;99.90
16881;DHT22;8557;52.068;5.198;2022-10-15T08:48:28;15.20;99.90
16881;DHT22;8557;52.068;5.198;2022-10-15T08:51:01;15.20;99.90
16881;DHT22;8557;52.068;5.198;2022-10-15T08:53:29;15.20;99.90
16881;DHT22;8557;52.068;5.198;2022-10-15T08:56:03;15.30;99.90
16881;DHT22;8557;52.068;5.198;2022-10-15T08:58:43;15.40;99.90
16881;DHT22;8557;52.068;5.198;2022-10-15T09:01:17;15.60;99.90
16881;DHT22;8557;52.068;5.198;2022-10-15T09:03:52;15.60;99.90
16881;DHT22;8557;52.068;5.198;2022-10-15T09:06:27;15.60;99.90
16881;DHT22;8557;52.068;5.198;2022-10-15T09:09:05;15.60;99.90
16881;DHT22;8557;52.068;5.198;2022-10-15T09:11:40;15.60;99.90
16881;DHT22;8557;52.068;5.198;2022-10-15T09:14:13;15.60;99.90
16881;DHT22;8557;52.068;5.198;2022-10-15T09:16:44;15.60;99.90
16881;DHT22;8557;52.068;5.198;2022-10-15T09:19:15;15.80;99.90
16881;DHT22;8557;52.068;5.198;2022-10-15T09:21:48;15.80;99.90
16881;DHT22;8557;52.068;5.198;2022-10-15T09:24:20;15.90;99.90
16881;DHT22;8557;52.068;5.198;2022-10-15T09:26:56;15.80;99.90
16881;DHT22;8557;52.068;5.198;2022-10-15T09:29:30;15.70;99.90
16881;DHT22;8557;52.068;5.198;2022-10-15T09:32:06;15.60;99.90
16881;DHT22;8557;52.068;5.198;2022-10-15T09:34:39;15.60;99.90
16881;DHT22;8557;52.068;5.198;2022-10-15T09:37:15;15.60;99.90
16881;DHT22;8557;52.068;5.198;2022-10-15T09:39:55;15.50;99.90
16881;DHT22;8557;52.068;5.198;2022-10-15T09:42:28;15.40;99.90
16881;DHT22;8557;52.068;5.198;2022-10-15T09:44:58;15.40;99.90
16881;DHT22;8557;52.068;5.198;2022-10-15T09:47:27;15.30;99.90
16881;DHT22;8557;52.068;5.198;2022-10-15T09:49:54;15.30;99.90
16881;DHT22;8557;52.068;5.198;2022-10-15T09:52:29;15.20;99.90
16881;DHT22;8557;52.068;5.198;2022-10-15T09:55:08;15.10;99.90
16881;DHT22;8557;52.068;5.198;2022-10-15T09:57:37;15.20;99.90
16881;DHT22;8557;52.068;5.198;2022-10-15T10:00:11;15.30;99.90
16881;DHT22;8557;52.068;5.198;2022-10-15T10:02:39;15.30;99.90
16881;DHT22;8557;52.068;5.198;2022-10-15T10:05:27;15.50;99.90
16881;DHT22;8557;52.068;5.198;2022-10-15T10:08:08;15.60;99.90
16881;DHT22;8557;52.068;5.198;2022-10-15T10:10:36;15.70;99.90
16881;DHT22;8557;52.068;5.198;2022-10-15T10:13:06;15.70;99.90
16881;DHT22;8557;52.068;5.198;2022-10-15T10:15:35;15.70;99.90
16881;DHT22;8557;52.068;5.198;2022-10-15T10:18:17;15.70;99.90
16881;DHT22;8557;52.068;5.198;2022-10-15T10:20:52;15.60;99.90
16881;DHT22;8557;52.068;5.198;2022-10-15T10:23:23;15.60;99.90
16881;DHT22;8557;52.068;5.198;2022-10-15T10:25:50;15.60;99.90
16881;DHT22;8557;52.068;5.198;2022-10-15T10:28:20;15.60;99.90
16881;DHT22;8557;52.068;5.198;2022-10-15T10:30:57;15.60;99.90
16881;DHT22;8557;52.068;5.198;2022-10-15T10:33:33;15.60;99.90
16881;DHT22;8557;52.068;5.198;2022-10-15T10:36:00;15.60;99.90
16881;DHT22;8557;52.068;5.198;2022-10-15T10:38:31;15.50;99.90
16881;DHT22;8557;52.068;5.198;2022-10-15T10:41:00;15.40;99.90
16881;DHT22;8557;52.068;5.198;2022-10-15T10:43:32;15.40;99.90
16881;DHT22;8557;52.068;5.198;2022-10-15T10:46:01;15.30;99.90
16881;DHT22;8557;52.068;5.198;2022-10-15T10:48:37;15.30;99.90
16881;DHT22;8557;52.068;5.198;2022-10-15T10:51:08;15.30;99.90
16881;DHT22;8557;52.068;5.198;2022-10-15T10:53:47;15.30;99.90
16881;DHT22;8557;52.068;5.198;2022-10-15T10:56:17;15.30;99.90
16881;DHT22;8557;52.068;5.198;2022-10-15T10:58:48;15.30;99.90
16881;DHT22;8557;52.068;5.198;2022-10-15T11:01:18;15.30;99.90
16881;DHT22;8557;52.068;5.198;2022-10-15T11:03:45;15.30;99.90
16881;DHT22;8557;52.068;5.198;2022-10-15T11:06:32;15.30;99.90
16881;DHT22;8557;52.068;5.198;2022-10-15T11:09:15;15.30;99.90
16881;DHT22;8557;52.068;5.198;2022-10-15T11:11:55;15.30;99.90
16881;DHT22;8557;52.068;5.198;2022-10-15T11:14:30;15.40;99.90
16881;DHT22;8557;52.068;5.198;2022-10-15T11:17:04;15.40;99.90
16881;DHT22;8557;52.068;5.198;2022-10-15T11:19:37;15.40;99.90
16881;DHT22;8557;52.068;5.198;2022-10-15T11:22:18;15.40;99.90
16881;DHT22;8557;52.068;5.198;2022-10-15T11:24:59;15.40;99.90
16881;DHT22;8557;52.068;5.198;2022-10-15T11:27:50;15.40;99.90
16881;DHT22;8557;52.068;5.198;2022-10-15T11:30:33;15.50;99.90
16881;DHT22;8557;52.068;5.198;2022-10-15T11:33:17;15.50;99.90
16881;DHT22;8557;52.068;5.198;2022-10-15T11:35:50;15.50;99.90
16881;DHT22;8557;52.068;5.198;2022-10-15T11:38:26;15.50;99.90
16881;DHT22;8557;52.068;5.198;2022-10-15T11:41:10;15.60;99.90
16881;DHT22;8557;52.068;5.198;2022-10-15T11:44:02;15.70;99.90
16881;DHT22;8557;52.068;5.198;2022-10-15T11:46:36;15.70;99.90
16881;DHT22;8557;52.068;5.198;2022-10-15T11:49:19;15.70;99.90
16881;DHT22;8557;52.068;5.198;2022-10-15T11:52:04;15.70;99.90
16881;DHT22;8557;52.068;5.198;2022-10-15T11:54:36;15.70;99.90
16881;DHT22;8557;52.068;5.198;2022-10-15T11:57:08;15.60;99.90
16881;DHT22;8557;52.068;5.198;2022-10-15T11:59:40;15.70;99.90
16881;DHT22;8557;52.068;5.198;2022-10-15T12:02:13;15.70;99.90
16881;DHT22;8557;52.068;5.198;2022-10-15T12:04:43;15.70;99.90
16881;DHT22;8557;52.068;5.198;2022-10-15T12:07:15;15.70;99.90
16881;DHT22;8557;52.068;5.198;2022-10-15T12:09:47;15.90;99.90
16881;DHT22;8557;52.068;5.198;2022-10-15T12:12:27;15.90;99.90
16881;DHT22;8557;52.068;5.198;2022-10-15T12:15:13;15.90;99.90
16881;DHT22;8557;52.068;5.198;2022-10-15T12:17:50;16.00;99.90
16881;DHT22;8557;52.068;5.198;2022-10-15T12:20:20;16.00;99.90
16881;DHT22;8557;52.068;5.198;2022-10-15T12:22:56;16.10;99.90
16881;DHT22;8557;52.068;5.198;2022-10-15T12:25:43;16.10;99.90
16881;DHT22;8557;52.068;5.198;2022-10-15T12:28:20;16.20;99.90
16881;DHT22;8557;52.068;5.198;2022-10-15T12:30:56;16.30;99.90
16881;DHT22;8557;52.068;5.198;2022-10-15T12:33:28;16.30;99.90
16881;DHT22;8557;52.068;5.198;2022-10-15T12:35:58;16.30;99.90
16881;DHT22;8557;52.068;5.198;2022-10-15T12:38:28;16.30;99.90
16881;DHT22;8557;52.068;5.198;2022-10-15T12:40:58;16.20;99.90
16881;DHT22;8557;52.068;5.198;2022-10-15T12:43:27;16.30;99.90
16881;DHT22;8557;52.068;5.198;2022-10-15T12:45:56;16.30;99.90
16881;DHT22;8557;52.068;5.198;2022-10-15T12:48:29;16.30;99.90
16881;DHT22;8557;52.068;5.198;2022-10-15T12:54:34;16.30;99.90
16881;DHT22;8557;52.068;5.198;2022-10-15T12:57:02;16.40;99.90
16881;DHT22;8557;52.068;5.198;2022-10-15T12:59:55;16.40;99.90
16881;DHT22;8557;52.068;5.198;2022-10-15T13:02:34;16.50;99.90
16881;DHT22;8557;52.068;5.198;2022-10-15T13:05:02;16.50;99.90
16881;DHT22;8557;52.068;5.198;2022-10-15T13:07:31;16.50;99.90
16881;DHT22;8557;52.068;5.198;2022-10-15T13:10:01;16.50;99.90
16881;DHT22;8557;52.068;5.198;2022-10-15T13:12:29;16.70;99.90
16881;DHT22;8557;52.068;5.198;2022-10-15T13:15:00;16.70;99.90
16881;DHT22;8557;52.068;5.198;2022-10-15T13:17:29;16.60;99.90
16881;DHT22;8557;52.068;5.198;2022-10-15T13:19:58;16.50;99.90
16881;DHT22;8557;52.068;5.198;2022-10-15T13:22:26;16.70;99.90
16881;DHT22;8557;52.068;5.198;2022-10-15T13:24:54;17.60;99.90
16881;DHT22;8557;52.068;5.198;2022-10-15T13:27:23;17.70;99.90
16881;DHT22;8557;52.068;5.198;2022-10-15T13:29:59;17.70;99.90
16881;DHT22;8557;52.068;5.198;2022-10-15T13:32:28;17.50;99.90
16881;DHT22;8557;52.068;5.198;2022-10-15T13:34:57;17.30;99.90
16881;DHT22;8557;52.068;5.198;2022-10-15T13:37:29;17.20;99.90
16881;DHT22;8557;52.068;5.198;2022-10-15T13:39:57;17.00;99.90
16881;DHT22;8557;52.068;5.198;2022-10-15T13:42:25;16.90;99.90
16881;DHT22;8557;52.068;5.198;2022-10-15T13:44:57;16.90;99.90
16881;DHT22;8557;52.068;5.198;2022-10-15T13:47:28;16.90;99.90
16881;DHT22;8557;52.068;5.198;2022-10-15T13:50:11;16.90;99.90
16881;DHT22;8557;52.068;5.198;2022-10-15T13:52:39;17.00;99.90
16881;DHT22;8557;52.068;5.198;2022-10-15T13:55:18;17.30;99.90
16881;DHT22;8557;52.068;5.198;2022-10-15T13:57:46;17.60;99.90
16881;DHT22;8557;52.068;5.198;2022-10-15T14:00:22;18.80;99.90
16881;DHT22;8557;52.068;5.198;2022-10-15T14:03:15;18.80;99.90
16881;DHT22;8557;52.068;5.198;2022-10-15T14:05:43;18.90;99.90
16881;DHT22;8557;52.068;5.198;2022-10-15T14:08:15;20.50;99.90
16881;DHT22;8557;52.068;5.198;2022-10-15T14:10:42;20.50;99.90
16881;DHT22;8557;52.068;5.198;2022-10-15T14:13:09;19.80;99.90
16881;DHT22;8557;52.068;5.198;2022-10-15T14:15:42;19.60;99.90
16881;DHT22;8557;52.068;5.198;2022-10-15T14:18:09;20.40;99.90
16881;DHT22;8557;52.068;5.198;2022-10-15T14:20:42;21.80;99.90
16881;DHT22;8557;52.068;5.198;2022-10-15T14:23:19;22.10;51.60
16881;DHT22;8557;52.068;5.198;2022-10-15T14:25:51;22.40;15.00
16881;DHT22;8557;52.068;5.198;2022-10-15T14:28:20;23.30;1.00
16881;DHT22;8557;52.068;5.198;2022-10-15T14:30:47;23.00;1.00
16881;DHT22;8557;52.068;5.198;2022-10-15T14:33:44;22.40;1.00
16881;DHT22;8557;52.068;5.198;2022-10-15T14:36:23;21.10;98.80
16881;DHT22;8557;52.068;5.198;2022-10-15T14:38:50;20.00;99.90
16881;DHT22;8557;52.068;5.198;2022-10-15T14:41:23;20.00;99.90
16881;DHT22;8557;52.068;5.198;2022-10-15T14:44:00;19.40;99.90
16881;DHT22;8557;52.068;5.198;2022-10-15T14:46:35;19.10;99.90
16881;DHT22;8557;52.068;5.198;2022-10-15T14:49:02;19.10;99.90
16881;DHT22;8557;52.068;5.198;2022-10-15T14:51:31;18.90;99.90
16881;DHT22;8557;52.068;5.198;2022-10-15T14:53:58;18.60;99.90
16881;DHT22;8557;52.068;5.198;2022-10-15T14:56:31;18.00;99.90
16881;DHT22;8557;52.068;5.198;2022-10-15T14:58:59;17.70;99.90
16881;DHT22;8557;52.068;5.198;2022-10-15T15:01:26;17.80;99.90
16881;DHT22;8557;52.068;5.198;2022-10-15T15:03:56;18.20;99.90
16881;DHT22;8557;52.068;5.198;2022-10-15T15:06:22;18.20;99.90
16881;DHT22;8557;52.068;5.198;2022-10-15T15:08:51;17.80;99.90
16881;DHT22;8557;52.068;5.198;2022-10-15T15:11:20;17.40;99.90
16881;DHT22;8557;52.068;5.198;2022-10-15T15:13:48;17.40;99.90
16881;DHT22;8557;52.068;5.198;2022-10-15T15:16:17;17.20;99.90
16881;DHT22;8557;52.068;5.198;2022-10-15T15:18:43;17.10;99.90
16881;DHT22;8557;52.068;5.198;2022-10-15T15:21:13;17.00;99.90
16881;DHT22;8557;52.068;5.198;2022-10-15T15:23:41;16.90;99.90
16881;DHT22;8557;52.068;5.198;2022-10-15T15:26:10;16.70;99.90
16881;DHT22;8557;52.068;5.198;2022-10-15T15:28:37;16.60;99.90
16881;DHT22;8557;52.068;5.198;2022-10-15T15:31:06;16.40;99.90
16881;DHT22;8557;52.068;5.198;2022-10-15T15:33:33;16.40;99.90
16881;DHT22;8557;52.068;5.198;2022-10-15T15:36:02;16.30;99.90
16881;DHT22;8557;52.068;5.198;2022-10-15T15:38:30;16.20;99.90
16881;DHT22;8557;52.068;5.198;2022-10-15T15:41:00;16.10;99.90
16881;DHT22;8557;52.068;5.198;2022-10-15T15:43:29;16.00;99.90
16881;DHT22;8557;52.068;5.198;2022-10-15T15:45:56;16.00;99.90
16881;DHT22;8557;52.068;5.198;2022-10-15T15:48:23;15.70;99.90
16881;DHT22;8557;52.068;5.198;2022-10-15T15:50:50;15.60;99.90
16881;DHT22;8557;52.068;5.198;2022-10-15T15:53:17;15.50;99.90
16881;DHT22;8557;52.068;5.198;2022-10-15T15:55:44;15.40;99.90
16881;DHT22;8557;52.068;5.198;2022-10-15T15:58:11;15.20;99.90
16881;DHT22;8557;52.068;5.198;2022-10-15T16:00:39;15.10;99.90
16881;DHT22;8557;52.068;5.198;2022-10-15T16:03:06;15.10;99.90
16881;DHT22;8557;52.068;5.198;2022-10-15T16:05:33;15.00;99.90
16881;DHT22;8557;52.068;5.198;2022-10-15T16:08:00;14.90;99.90
16881;DHT22;8557;52.068;5.198;2022-10-15T16:10:26;14.80;99.90
16881;DHT22;8557;52.068;5.198;2022-10-15T16:12:53;14.70;99.90
16881;DHT22;8557;52.068;5.198;2022-10-15T16:15:21;14.60;99.90